Detall de PIREP

Printer-friendly versionPDF version

[2012/11/25 10:19:00]
Flight IATA:CT2111
Pilot Number:012
Company ICAO:CAT
Aircraft Type:BE20/A
PAX:6
Departing Airport: LEST
Destination Airport: LEVC
Alternate Airport:LEPA
Online: VATSIM
Route:FORNO UN733 ZMR UL155 NVS UM191 PDT UM871 ABOSI
Flight Level:F320
No Slew and time accel
No pause
Crash detect
Detect pilot in Cockpit between each 30 and 45 minutes
10:19 Zero fuel Weight: 9563 Lbs, Fuel Weight: 1298 Lbs
10:19 VATSIM:LEST 250930Z 00000KT 7000 VCFG FEW020 05/05 Q1018 NOSIG
10:19 VATSIM:LEVC 250930Z 31003KT CAVOK 12/10 Q1020 NOSIG
10:19 VOICE CATALONIAN
10:21 Parking Brakes off
10:25 Take-off
10:25 Take off Weight: 10845 Lbs
10:25 Wind: 000º @ 000 Knots Heading: 160º
10:25 POS N42º 54´ 15´´ W008º 25´ 02´´
10:25 Gear Up: 120 Knots
10:40 Wind:237º@053 Knots Heading: 137º Ground Speed: 193 Knots Altitude 24524 ft
10:47 TOC
10:47 Fuel Weight: 1033 Lb
10:55Wind:247º@068 Knots Heading: 137º Ground Speed: 299 Knots Altitude 32109 ft
11:10 Wind:247º@046 Knots Heading: 147º Ground Speed: 283 Knots Altitude 32135 ft
11:25 Wind:240º@028 Knots Heading: 100º Ground Speed: 297 Knots Altitude 32185 ft
11:38 TOD
11:38 Fuel Weight: 597 Lb
11:40 Wind:238º@025 Knots Heading: 098º Ground Speed: 318 Knots Altitude 30826 ft
11:55 Wind:218º@014 Knots Heading: 111º Ground Speed: 259 Knots Altitude 8143 ft
12:01 Flaps:1 at 154 Knots
12:01 Flaps:2 at 127 Knots
12:01 Gear Down: 125 Knots
12:04 TouchDown:Rate -37 ft/min Speed: 92 Knots
12:04 VATSIM:LEVC 251100Z 00000KT CAVOK 16/12 Q1020 NOSIG
12:04 Land
12:04 Wind:000º@000 Knots
12:04 Heading: 118º
12:04 Flight Duration: 01:39
12:04 Landing Weight: 9980 Lbs
12:04 POS N39º 29´ 28´´ W000º 29´ 13´´
12:07 Parking brakes on
12:07 Block to Block Duration: 01:46
12:07 Final Fuel: 410 Lbls
12:07 Spent Fuel: 888 Lbls
12:07 Flight Length: 425 NM
12:07 TOD Land Length: 111 NM

Exportar CSV

Powered by Drupal - Modified by Danger4k